You are not logged in, Click here to log in
阿爾伯特懷特迪機場 SPG / KSPG United States
ICAO: KSPG Country: United States
Latitude: 27.7651 Longitude: -82.627
Total Arrivals: 1 Total Departures: 1
Latest Arrival: BRN417KC (KRSW-KSPG)Stone. Chang Latest Departure: BRN24PF (KSPG-KRSW)Stone. Chang
Scenery:
METAR : KSPG 080253Z AUTO 02004KT 10SM CLR 19/14 A3015 RMK AO2 SLP210 T01890144 53006

阿爾伯特懷特迪機場 SPG